createdAt,value
2022-10-01T00:03:04.153Z,12.85
2022-10-01T00:08:05.735Z,10.30
2022-10-01T00:13:07.224Z,9.85
2022-10-01T00:18:10.618Z,10.63
2022-10-01T00:23:13.951Z,14.98
2022-10-01T00:28:15.502Z,11.00
2022-10-01T00:33:16.985Z,18.63
2022-10-01T00:38:18.432Z,10.50
2022-10-01T00:43:24.462Z,14.05
2022-10-01T00:48:29.391Z,11.05
2022-10-01T00:53:32.797Z,11.05
2022-10-01T00:58:34.267Z,9.13
2022-10-01T01:03:35.756Z,12.45
2022-10-01T01:08:37.245Z,8.90
2022-10-01T01:14:13.314Z,8.63
2022-10-01T01:19:36.180Z,8.75
2022-10-01T01:24:49.904Z,6.93
2022-10-01T01:30:06.710Z,5.22
2022-10-01T01:35:11.205Z,5.70
2022-10-01T01:40:16.400Z,4.22
2022-10-01T01:45:24.333Z,2.42
2022-10-01T01:50:29.420Z,3.35
2022-10-01T01:55:32.230Z,3.22
2022-10-01T02:00:33.750Z,4.07
2022-10-01T02:05:49.077Z,5.03
2022-10-01T02:11:15.343Z,5.57
2022-10-01T02:16:21.062Z,3.13
2022-10-01T02:21:32.859Z,2.60
2022-10-01T02:26:37.438Z,3.67
2022-10-01T02:31:41.140Z,3.50
2022-10-01T02:36:45.263Z,5.00
2022-10-01T02:41:48.111Z,3.75
2022-10-01T02:47:06.216Z,4.40
2022-10-01T02:52:40.596Z,5.40
2022-10-01T02:57:42.288Z,3.55
2022-10-01T03:02:43.786Z,3.88
2022-10-01T03:07:45.491Z,2.88
2022-10-01T03:12:47.011Z,3.70
2022-10-01T03:17:52.568Z,4.70
2022-10-01T03:22:54.018Z,4.38
2022-10-01T03:27:55.496Z,5.32
2022-10-01T03:32:56.948Z,5.20
2022-10-01T03:37:58.527Z,6.28
2022-10-01T03:43:00.001Z,5.47
2022-10-01T03:48:01.610Z,7.60
2022-10-01T03:53:03.066Z,5.45
2022-10-01T03:58:04.887Z,9.02
2022-10-01T04:03:06.774Z,9.95
2022-10-01T04:08:08.594Z,6.45
2022-10-01T04:13:10.097Z,9.32
2022-10-01T04:18:12.160Z,12.68
2022-10-01T04:23:13.810Z,8.98
2022-10-01T04:28:15.984Z,9.63
2022-10-01T04:33:17.575Z,9.95
2022-10-01T04:38:19.023Z,7.63
2022-10-01T04:43:20.505Z,10.10
2022-10-01T04:48:22.066Z,13.77
2022-10-01T04:53:23.635Z,8.98
2022-10-01T04:58:25.124Z,12.27
2022-10-01T05:03:26.651Z,12.95
2022-10-01T05:08:28.654Z,11.80
2022-10-01T05:13:31.841Z,19.17
2022-10-01T05:18:33.603Z,10.00
2022-10-01T05:23:35.085Z,15.80
2022-10-01T05:28:36.768Z,15.90
2022-10-01T05:33:38.410Z,15.80
2022-10-01T05:38:39.891Z,16.50
2022-10-01T05:43:41.371Z,23.17
2022-10-01T05:48:42.842Z,16.23
2022-10-01T05:53:50.551Z,17.08
2022-10-01T05:58:52.147Z,19.95
2022-10-01T06:03:53.602Z,15.02
2022-10-01T06:08:55.051Z,15.63
2022-10-01T06:13:56.501Z,22.15
2022-10-01T06:18:58.211Z,16.77
2022-10-01T06:23:59.803Z,21.55
2022-10-01T06:29:02.779Z,19.35
2022-10-01T06:34:04.351Z,15.73
2022-10-01T06:39:05.847Z,22.17
2022-10-01T06:44:07.511Z,23.63
2022-10-01T06:49:09.056Z,25.95
2022-10-01T06:54:10.695Z,24.13
2022-10-01T06:59:12.235Z,21.73
2022-10-01T07:04:13.741Z,16.67
2022-10-01T07:09:15.196Z,18.27
2022-10-01T07:14:16.658Z,7.35
2022-10-01T07:19:18.112Z,10.10
2022-10-01T07:24:19.590Z,10.52
2022-10-01T07:29:23.851Z,6.57
2022-10-01T07:34:31.027Z,5.88
2022-10-01T07:39:32.643Z,6.65
2022-10-01T07:44:34.155Z,2.45
2022-10-01T07:49:35.620Z,6.47
2022-10-01T07:54:37.100Z,5.50
2022-10-01T07:59:40.331Z,9.10
2022-10-01T08:05:00.787Z,8.10
2022-10-01T08:10:04.687Z,10.40
2022-10-01T08:15:08.234Z,14.30
2022-10-01T08:20:12.006Z,12.98
2022-10-01T08:25:13.447Z,11.25
2022-10-01T08:30:14.967Z,15.50
2022-10-01T08:35:16.491Z,19.20
2022-10-01T08:40:21.540Z,16.38
2022-10-01T08:45:52.977Z,20.15
2022-10-01T08:51:00.677Z,17.77
2022-10-01T08:56:03.970Z,21.23
2022-10-01T09:01:05.618Z,16.73
2022-10-01T09:06:17.989Z,21.42
2022-10-01T09:11:29.432Z,22.67
2022-10-01T09:16:41.027Z,14.00
2022-10-01T09:21:48.535Z,16.10
2022-10-01T09:26:50.317Z,22.02
2022-10-01T09:31:53.649Z,18.75
2022-10-01T09:37:08.022Z,13.93
2022-10-01T09:42:09.649Z,18.23
2022-10-01T09:47:20.230Z,17.17
2022-10-01T09:52:27.093Z,14.18
2022-10-01T09:57:33.738Z,18.45
2022-10-01T10:09:30.853Z,18.53
2022-10-01T10:14:36.185Z,18.00
2022-10-01T10:19:38.250Z,9.20
2022-10-01T10:24:39.794Z,12.02
2022-10-01T10:29:41.265Z,13.18
2022-10-01T10:34:47.006Z,16.08
2022-10-01T10:39:51.480Z,17.25
2022-10-01T10:44:56.619Z,14.45
2022-10-01T10:50:02.434Z,20.58
2022-10-01T10:55:23.393Z,17.33
2022-10-01T11:00:26.295Z,23.27
2022-10-01T11:05:32.049Z,16.13
2022-10-01T11:10:38.244Z,13.98
2022-10-01T11:16:18.258Z,22.63
2022-10-01T11:21:41.734Z,19.13
2022-10-01T11:27:01.154Z,17.17
2022-10-01T11:32:19.371Z,14.50
2022-10-01T11:37:53.155Z,19.05
2022-10-01T11:43:01.927Z,16.33
2022-10-01T11:48:41.421Z,18.30
2022-10-01T11:53:56.270Z,16.58
2022-10-01T11:59:08.128Z,18.27
2022-10-01T12:04:34.130Z,14.48
2022-10-01T12:09:55.881Z,15.52
2022-10-01T12:20:37.336Z,15.63
2022-10-01T12:26:05.370Z,15.13
2022-10-01T12:31:22.231Z,20.08
2022-10-01T12:36:37.061Z,16.90
2022-10-01T12:41:52.042Z,20.50
2022-10-01T12:47:21.757Z,14.68
2022-10-01T12:52:42.434Z,16.63
2022-10-01T12:58:04.001Z,20.17
2022-10-01T13:03:23.742Z,15.25
2022-10-01T13:08:31.125Z,18.08
2022-10-01T13:18:35.974Z,21.08
2022-10-01T13:23:49.335Z,17.20
2022-10-01T13:29:02.545Z,21.88
2022-10-01T13:34:24.331Z,17.17
2022-10-01T13:39:36.584Z,14.35
2022-10-01T13:44:41.188Z,14.68
2022-10-01T13:49:42.932Z,17.60
2022-10-01T13:54:47.945Z,12.65
2022-10-01T13:59:58.802Z,10.20
2022-10-01T14:05:28.158Z,15.35
2022-10-01T14:10:59.455Z,21.77
2022-10-01T14:16:03.247Z,15.18
2022-10-01T14:21:20.109Z,16.13
2022-10-01T14:26:31.940Z,14.02
2022-10-01T14:31:59.092Z,16.60
2022-10-01T14:37:01.006Z,15.83
2022-10-01T14:42:16.987Z,17.40
2022-10-01T14:47:23.863Z,19.67
2022-10-01T14:52:31.354Z,18.73
2022-10-01T14:57:43.757Z,17.00
2022-10-01T15:02:49.407Z,15.27
2022-10-01T15:07:50.886Z,15.18
2022-10-01T15:12:53.684Z,21.55
2022-10-01T15:17:55.650Z,15.55
2022-10-01T15:23:01.279Z,16.25
2022-10-01T15:28:14.830Z,13.45
2022-10-01T15:33:27.722Z,14.50
2022-10-01T15:38:31.520Z,12.77
2022-10-01T15:43:37.565Z,14.25
2022-10-01T15:48:39.090Z,14.50
2022-10-01T15:53:40.964Z,13.25
2022-10-01T15:58:56.064Z,17.77
2022-10-01T16:04:09.946Z,12.63
2022-10-01T16:09:21.890Z,12.88
2022-10-01T16:14:47.269Z,11.02
2022-10-01T16:19:54.874Z,12.40
2022-10-01T16:25:01.755Z,15.88
2022-10-01T16:30:23.601Z,19.58
2022-10-01T16:35:32.496Z,20.90
2022-10-01T16:40:39.056Z,20.05
2022-10-01T16:45:42.733Z,11.93
2022-10-01T16:50:46.381Z,14.40
2022-10-01T16:55:48.070Z,22.35
2022-10-01T17:00:49.585Z,17.23
2022-10-01T17:05:51.189Z,15.15
2022-10-01T17:10:57.637Z,18.70
2022-10-01T17:16:00.315Z,10.63
2022-10-01T17:21:05.794Z,10.48
2022-10-01T17:26:08.870Z,13.93
2022-10-01T17:31:15.616Z,23.98
2022-10-01T17:36:19.341Z,20.42
2022-10-01T17:41:21.931Z,19.60
2022-10-01T17:46:23.503Z,14.50
2022-10-01T17:51:25.818Z,24.88
2022-10-01T17:56:27.532Z,29.70
2022-10-01T18:01:29.037Z,34.53
2022-10-01T18:06:30.926Z,26.33
2022-10-01T18:11:32.961Z,46.17
2022-10-01T18:16:34.959Z,18.00
2022-10-01T18:21:36.807Z,13.80
2022-10-01T18:26:38.688Z,27.60
2022-10-01T18:31:41.332Z,32.85
2022-10-01T18:37:01.468Z,28.77
2022-10-01T18:42:14.959Z,23.88
2022-10-01T18:47:25.455Z,25.70
2022-10-01T18:52:46.731Z,23.90
2022-10-01T18:58:30.163Z,24.23
2022-10-01T19:03:39.319Z,34.65
2022-10-01T19:09:03.815Z,24.75
2022-10-01T19:14:14.035Z,23.98
2022-10-01T19:19:38.122Z,28.45
2022-10-01T19:24:54.400Z,18.95
2022-10-01T19:30:10.538Z,14.07
2022-10-01T19:35:21.617Z,19.25
2022-10-01T19:40:49.365Z,19.80
2022-10-01T19:46:15.227Z,18.00
2022-10-01T19:51:21.765Z,11.05
2022-10-01T19:56:28.285Z,19.23
2022-10-01T20:01:39.290Z,15.65
2022-10-01T20:06:44.409Z,13.30
2022-10-01T20:12:30.938Z,18.23
2022-10-01T20:18:04.078Z,14.30
2022-10-01T20:23:20.590Z,22.13
2022-10-01T20:28:36.145Z,15.10
2022-10-01T20:34:10.092Z,13.68
2022-10-01T20:39:30.924Z,15.50
2022-10-01T20:44:36.378Z,12.93
2022-10-01T20:50:09.204Z,16.55
2022-10-01T20:55:18.586Z,13.60
2022-10-01T21:00:26.518Z,12.52
2022-10-01T21:05:35.250Z,14.10
2022-10-01T21:10:46.258Z,19.33
2022-10-01T21:15:53.633Z,14.38
2022-10-01T21:21:08.331Z,23.10
2022-10-01T21:26:35.513Z,14.25
2022-10-01T21:32:00.906Z,20.13
2022-10-01T21:37:14.306Z,20.58
2022-10-01T21:42:27.008Z,12.90
2022-10-01T21:47:49.650Z,16.05
2022-10-01T21:53:23.334Z,15.10
2022-10-01T21:58:39.922Z,15.68
2022-10-01T22:03:56.516Z,14.77
2022-10-01T22:09:16.298Z,16.63
2022-10-01T22:14:20.343Z,18.55
2022-10-01T22:19:28.491Z,13.35
2022-10-01T22:24:37.545Z,15.35
2022-10-01T22:29:44.424Z,14.13
2022-10-01T22:34:54.332Z,21.03
2022-10-01T22:40:02.896Z,12.85
2022-10-01T22:45:17.254Z,15.80
2022-10-01T22:50:42.794Z,22.33
2022-10-01T22:55:44.179Z,14.05
2022-10-01T23:01:22.508Z,10.02
2022-10-01T23:12:08.485Z,11.98
2022-10-01T23:17:18.047Z,8.75
2022-10-01T23:22:37.134Z,8.50
2022-10-01T23:28:03.675Z,7.28
2022-10-01T23:33:05.114Z,7.72
2022-10-01T23:38:12.680Z,15.90
2022-10-01T23:48:26.591Z,17.45
2022-10-01T23:53:35.802Z,14.38
2022-10-01T23:58:50.013Z,12.80
